Thailine 9 — 9WGP9 — position and weather

sailwx.info

Track history (hours):
 
Tides and Currents Weather Stations Pressure Air Temp Water Temp Dewpoint Dewpoint Depression Visibility Wind Speed Wind Dir Waves Ship Positions

Thailine 9

Last reported at 2016-Jan-15 12:20 UTC. Time now 2016-Feb-11 19:13 UTC.
Position N 33°60' E 134°54'.
Warning: this ship's position is 27 days out of date.

Length 113 m; draft 4.3 m.

Type: Ship. MMSI: 533791000.

Date/timePositionNaut miles runAvg speedWind from/ knotsBaromVisibWave heightAir tempDewpointWater temp
2016-Jan-15 12:20N 33°60' E 134°54'911.8
2016-Jan-15 11:33N 34°09' E 134°56'1312.6
2016-Jan-15 10:32N 34°21' E 135°00'1212.1
2016-Jan-15 09:33N 34°30' E 135°11'1111.2
2016-Jan-15 08:33N 34°39' E 135°18'3 3.2
2016-Jan-15 07:31N 34°42' E 135°17'0 0.0
2016-Jan-15 05:31N 34°42' E 135°17'0 0.0
2016-Jan-15 04:31N 34°42' E 135°17'0 0.0
2016-Jan-15 03:19N 34°42' E 135°17'0 0.0
2016-Jan-15 02:31N 34°42' E 135°17'0 0.0
2016-Jan-15 01:31N 34°42' E 135°17'0 0.0
2016-Jan-15 00:31N 34°42' E 135°17'0 0.0
2016-Jan-14 23:31N 34°42' E 135°17'0 0.0
2016-Jan-14 22:31N 34°42' E 135°17'3 2.7
2016-Jan-14 21:33N 34°40' E 135°19'1110.8
2016-Jan-14 20:33N 34°31' E 135°12'1110.7
2016-Jan-14 19:33N 34°23' E 135°03'10 9.6
2016-Jan-14 18:34N 34°14' E 134°59'1110.8
2016-Jan-14 17:33N 34°03' E 134°60'239 7.5
2016-Jan-13 09:29N 35°04' E 139°40'1010.3
2016-Jan-13 08:33N 35°12' E 139°46'1110.7
2016-Jan-13 07:33N 35°23' E 139°42'5 5.1
2016-Jan-13 06:33N 35°28' E 139°40'0 0.0
2016-Jan-13 05:33N 35°28' E 139°40'0 0.0
2016-Jan-13 04:33N 35°28' E 139°40'0 0.0
2016-Jan-13 03:33N 35°28' E 139°40'0 0.0
2016-Jan-13 02:33N 35°28' E 139°40'0 0.0
2016-Jan-13 01:33N 35°28' E 139°40'0 0.0
2016-Jan-13 00:33N 35°28' E 139°40'0 0.0
2016-Jan-12 23:33N 35°28' E 139°40'0 0.0
2016-Jan-12 22:33N 35°28' E 139°40'2 1.9
2016-Jan-12 21:33N 35°26' E 139°42'1 1.0
2016-Jan-12 20:28N 35°25' E 139°42'0 0.0
2016-Jan-12 19:31N 35°25' E 139°42'0 0.0
2016-Jan-12 18:31N 35°25' E 139°42'0 0.0
2016-Jan-12 17:31N 35°25' E 139°42'0 0.0
2016-Jan-12 16:31N 35°25' E 139°42'0 0.1
2016-Jan-12 15:31N 35°25' E 139°42'0 0.0
2016-Jan-12 14:31N 35°25' E 139°42'0 0.0
2016-Jan-12 13:31N 35°25' E 139°42'0 0.1
2016-Jan-12 12:31N 35°25' E 139°42'0 0.0
2016-Jan-12 11:31N 35°25' E 139°42'0 0.0
2016-Jan-12 10:31N 35°25' E 139°42'0 0.0
2016-Jan-12 09:31N 35°25' E 139°42'0 0.0
2016-Jan-12 08:31N 35°25' E 139°42'0 0.0
2016-Jan-12 07:31N 35°25' E 139°42'0 0.1
2016-Jan-12 06:31N 35°25' E 139°42'0 0.0
2016-Jan-12 05:31N 35°25' E 139°42'0 0.0
2016-Jan-12 04:31N 35°25' E 139°42'0 0.0
2016-Jan-12 03:31N 35°25' E 139°42'0 0.0
2016-Jan-12 02:31N 35°25' E 139°42'0 0.0
2016-Jan-12 01:31N 35°25' E 139°42'0 0.0
2016-Jan-12 00:31N 35°25' E 139°42'0 0.0
2016-Jan-11 23:31N 35°25' E 139°42'0 0.0
2016-Jan-11 22:31N 35°25' E 139°42'0 0.0
2016-Jan-11 21:31N 35°25' E 139°42'0 0.0
2016-Jan-11 20:28N 35°25' E 139°42'0 0.0
2016-Jan-11 19:31N 35°25' E 139°42'0 0.0
2016-Jan-11 18:31N 35°25' E 139°42'0 0.0
2016-Jan-11 17:31N 35°25' E 139°42'0 0.0
2016-Jan-11 16:31N 35°25' E 139°42'0 0.1
2016-Jan-11 15:31N 35°25' E 139°42'0 0.2
2016-Jan-11 14:33N 35°25' E 139°42'1 0.7
2016-Jan-11 13:33N 35°26' E 139°42'7 7.2
2016-Jan-11 12:33N 35°19' E 139°44'9 8.7
2016-Jan-11 11:33N 35°10' E 139°46'9 8.7
2016-Jan-11 10:33N 35°03' E 139°41'  
Track history (hours):
 
Tides and Currents Weather Stations Pressure Air Temp Water Temp Dewpoint Dewpoint Depression Visibility Wind Speed Wind Dir Waves Ship Positions

Thailine 9

Last reported at 2016-Jan-15 12:20 UTC. Time now 2016-Feb-11 19:13 UTC.
Position N 33°60' E 134°54'.
Warning: this ship's position is 27 days out of date.

Length 113 m; draft 4.3 m.

Type: Ship. MMSI: 533791000.

Date/timePositionNaut miles runAvg speedWind from/ knotsBaromVisibWave heightAir tempDewpointWater temp
2016-Jan-15 12:20N 33°60' E 134°54'911.8
2016-Jan-15 11:33N 34°09' E 134°56'1312.6
2016-Jan-15 10:32N 34°21' E 135°00'1212.1
2016-Jan-15 09:33N 34°30' E 135°11'1111.2
2016-Jan-15 08:33N 34°39' E 135°18'3 3.2
2016-Jan-15 07:31N 34°42' E 135°17'0 0.0
2016-Jan-15 05:31N 34°42' E 135°17'0 0.0
2016-Jan-15 04:31N 34°42' E 135°17'0 0.0
2016-Jan-15 03:19N 34°42' E 135°17'0 0.0
2016-Jan-15 02:31N 34°42' E 135°17'0 0.0
2016-Jan-15 01:31N 34°42' E 135°17'0 0.0
2016-Jan-15 00:31N 34°42' E 135°17'0 0.0
2016-Jan-14 23:31N 34°42' E 135°17'0 0.0
2016-Jan-14 22:31N 34°42' E 135°17'3 2.7
2016-Jan-14 21:33N 34°40' E 135°19'1110.8
2016-Jan-14 20:33N 34°31' E 135°12'1110.7
2016-Jan-14 19:33N 34°23' E 135°03'10 9.6
2016-Jan-14 18:34N 34°14' E 134°59'1110.8
2016-Jan-14 17:33N 34°03' E 134°60'239 7.5
2016-Jan-13 09:29N 35°04' E 139°40'1010.3
2016-Jan-13 08:33N 35°12' E 139°46'1110.7
2016-Jan-13 07:33N 35°23' E 139°42'5 5.1
2016-Jan-13 06:33N 35°28' E 139°40'0 0.0
2016-Jan-13 05:33N 35°28' E 139°40'0 0.0
2016-Jan-13 04:33N 35°28' E 139°40'0 0.0
2016-Jan-13 03:33N 35°28' E 139°40'0 0.0
2016-Jan-13 02:33N 35°28' E 139°40'0 0.0
2016-Jan-13 01:33N 35°28' E 139°40'0 0.0
2016-Jan-13 00:33N 35°28' E 139°40'0 0.0
2016-Jan-12 23:33N 35°28' E 139°40'0 0.0
2016-Jan-12 22:33N 35°28' E 139°40'2 1.9
2016-Jan-12 21:33N 35°26' E 139°42'1 1.0
2016-Jan-12 20:28N 35°25' E 139°42'0 0.0
2016-Jan-12 19:31N 35°25' E 139°42'0 0.0
2016-Jan-12 18:31N 35°25' E 139°42'0 0.0
2016-Jan-12 17:31N 35°25' E 139°42'0 0.0
2016-Jan-12 16:31N 35°25' E 139°42'0 0.1
2016-Jan-12 15:31N 35°25' E 139°42'0 0.0
2016-Jan-12 14:31N 35°25' E 139°42'0 0.0
2016-Jan-12 13:31N 35°25' E 139°42'0 0.1
2016-Jan-12 12:31N 35°25' E 139°42'0 0.0
2016-Jan-12 11:31N 35°25' E 139°42'0 0.0
2016-Jan-12 10:31N 35°25' E 139°42'0 0.0
2016-Jan-12 09:31N 35°25' E 139°42'0 0.0
2016-Jan-12 08:31N 35°25' E 139°42'0 0.0
2016-Jan-12 07:31N 35°25' E 139°42'0 0.1
2016-Jan-12 06:31N 35°25' E 139°42'0 0.0
2016-Jan-12 05:31N 35°25' E 139°42'0 0.0
2016-Jan-12 04:31N 35°25' E 139°42'0 0.0
2016-Jan-12 03:31N 35°25' E 139°42'0 0.0
2016-Jan-12 02:31N 35°25' E 139°42'0 0.0
2016-Jan-12 01:31N 35°25' E 139°42'0 0.0
2016-Jan-12 00:31N 35°25' E 139°42'0 0.0
2016-Jan-11 23:31N 35°25' E 139°42'0 0.0
2016-Jan-11 22:31N 35°25' E 139°42'0 0.0
2016-Jan-11 21:31N 35°25' E 139°42'0 0.0
2016-Jan-11 20:28N 35°25' E 139°42'0 0.0
2016-Jan-11 19:31N 35°25' E 139°42'0 0.0
2016-Jan-11 18:31N 35°25' E 139°42'0 0.0
2016-Jan-11 17:31N 35°25' E 139°42'0 0.0
2016-Jan-11 16:31N 35°25' E 139°42'0 0.1
2016-Jan-11 15:31N 35°25' E 139°42'0 0.2
2016-Jan-11 14:33N 35°25' E 139°42'1 0.7
2016-Jan-11 13:33N 35°26' E 139°42'7 7.2
2016-Jan-11 12:33N 35°19' E 139°44'9 8.7
2016-Jan-11 11:33N 35°10' E 139°46'9 8.7
2016-Jan-11 10:33N 35°03' E 139°41'  

Dump ship's entire track history